Skip Navigation LinksHome page > Weather > Current weather Skip Navigation Links

Current Weather

Eureka, Nunavut

For information only: do not use for flight planning or navigation.
Latest weather
Observation time Friday, March 23, 2018 2:00 AM CDT
Local time Friday, March 23, 2018 2:19 AM CDT
Flight conditions Visual Meteorological Conditions
Wind direction East-Southeast (120°)
Wind speed 8 mph
Visibility 10 mi.
Present weather light snow
Sky condition
Ceiling unlimited
Cloud layer few clouds 5,000 ft.
Cloud layer scattered clouds 9,000 ft.
Temperature -38°F
Dewpoint -45°F
Altimeter 30.26 in.Hg
Derived measurements
Relative humidity 65%
Wind chill -61°F
Density altitude -7616 ft.
Sea-level pressure 30.27 in.Hg
METAR CWEU 230700Z 12007KT 10SM -SN FEW050 SCT090 M39/M43 A3026 RMK SC1AC4 SC TR SLP252


Location code

InnerDrive.Weather 4.0.6615.0 Release CLR 4.0.30319.42000
Copyright ©2018 Inner Drive Technology. All rights reserved. Portions Copyright ©1986-2018 David Braverman.

Find weather

Site navigation

Skip Navigation Links

Place info

Page info

PayPal - The safer, easier way to pay online!

Return home.

Copyright ©2018 Inner Drive Technology. Purveyors of fine, hand-crafted computer software. Page printed 2018-03-23T07:19:37 UTC.